sensor_id;sensor_type;location;lat;lon;timestamp;P1;durP1;ratioP1;P2;durP2;ratioP2
15858;SDS011;8029;52.202;7.308;2023-06-14T00:02:13;1.10;;;1.05;;
15858;SDS011;8029;52.202;7.308;2023-06-14T00:04:39;0.50;;;0.50;;
15858;SDS011;8029;52.202;7.308;2023-06-14T00:07:06;2.53;;;1.20;;
15858;SDS011;8029;52.202;7.308;2023-06-14T00:09:34;1.38;;;1.02;;
15858;SDS011;8029;52.202;7.308;2023-06-14T00:12:02;1.40;;;1.27;;
15858;SDS011;8029;52.202;7.308;2023-06-14T00:14:28;3.00;;;0.80;;
15858;SDS011;8029;52.202;7.308;2023-06-14T00:16:54;1.27;;;1.17;;
15858;SDS011;8029;52.202;7.308;2023-06-14T00:19:23;0.70;;;0.70;;
15858;SDS011;8029;52.202;7.308;2023-06-14T00:21:50;1.25;;;1.15;;
15858;SDS011;8029;52.202;7.308;2023-06-14T00:24:17;1.52;;;1.02;;
15858;SDS011;8029;52.202;7.308;2023-06-14T00:26:43;1.17;;;0.80;;
15858;SDS011;8029;52.202;7.308;2023-06-14T00:29:09;1.25;;;1.15;;
15858;SDS011;8029;52.202;7.308;2023-06-14T00:31:38;1.27;;;1.08;;
15858;SDS011;8029;52.202;7.308;2023-06-14T00:34:04;0.90;;;0.70;;
15858;SDS011;8029;52.202;7.308;2023-06-14T00:36:30;1.23;;;1.13;;
15858;SDS011;8029;52.202;7.308;2023-06-14T00:38:56;1.27;;;1.00;;
15858;SDS011;8029;52.202;7.308;2023-06-14T00:41:22;2.60;;;0.98;;
15858;SDS011;8029;52.202;7.308;2023-06-14T00:43:48;1.10;;;1.10;;
15858;SDS011;8029;52.202;7.308;2023-06-14T00:46:14;0.68;;;0.68;;
15858;SDS011;8029;52.202;7.308;2023-06-14T00:48:40;1.23;;;1.13;;
15858;SDS011;8029;52.202;7.308;2023-06-14T00:51:06;0.90;;;0.85;;
15858;SDS011;8029;52.202;7.308;2023-06-14T00:53:32;1.27;;;1.20;;
15858;SDS011;8029;52.202;7.308;2023-06-14T00:56:00;0.98;;;0.80;;
15858;SDS011;8029;52.202;7.308;2023-06-14T00:58:26;0.93;;;0.93;;
15858;SDS011;8029;52.202;7.308;2023-06-14T01:00:53;0.60;;;0.60;;
15858;SDS011;8029;52.202;7.308;2023-06-14T01:03:19;2.05;;;1.33;;
15858;SDS011;8029;52.202;7.308;2023-06-14T01:05:47;0.80;;;0.80;;
15858;SDS011;8029;52.202;7.308;2023-06-14T01:08:37;0.93;;;0.80;;
15858;SDS011;8029;52.202;7.308;2023-06-14T01:11:10;0.90;;;0.73;;
15858;SDS011;8029;52.202;7.308;2023-06-14T01:13:38;0.63;;;0.63;;
15858;SDS011;8029;52.202;7.308;2023-06-14T01:16:05;1.02;;;0.80;;
15858;SDS011;8029;52.202;7.308;2023-06-14T01:18:32;1.45;;;1.25;;
15858;SDS011;8029;52.202;7.308;2023-06-14T01:20:58;0.43;;;0.43;;
15858;SDS011;8029;52.202;7.308;2023-06-14T01:23:24;1.20;;;1.10;;
15858;SDS011;8029;52.202;7.308;2023-06-14T01:25:57;0.65;;;0.65;;
15858;SDS011;8029;52.202;7.308;2023-06-14T01:28:23;1.42;;;1.33;;
15858;SDS011;8029;52.202;7.308;2023-06-14T01:30:50;5.80;;;1.10;;
15858;SDS011;8029;52.202;7.308;2023-06-14T01:33:19;1.30;;;0.95;;
15858;SDS011;8029;52.202;7.308;2023-06-14T01:35:46;1.10;;;0.90;;
15858;SDS011;8029;52.202;7.308;2023-06-14T01:38:12;0.70;;;0.68;;
15858;SDS011;8029;52.202;7.308;2023-06-14T01:40:38;2.72;;;1.10;;
15858;SDS011;8029;52.202;7.308;2023-06-14T01:43:05;2.20;;;1.23;;
15858;SDS011;8029;52.202;7.308;2023-06-14T01:45:31;2.60;;;0.98;;
15858;SDS011;8029;52.202;7.308;2023-06-14T01:47:58;0.93;;;0.85;;
15858;SDS011;8029;52.202;7.308;2023-06-14T01:50:27;1.27;;;0.82;;
15858;SDS011;8029;52.202;7.308;2023-06-14T01:52:54;9.55;;;1.67;;
15858;SDS011;8029;52.202;7.308;2023-06-14T01:55:20;1.80;;;1.15;;
15858;SDS011;8029;52.202;7.308;2023-06-14T01:57:47;1.35;;;1.08;;
15858;SDS011;8029;52.202;7.308;2023-06-14T02:00:13;0.70;;;0.70;;
15858;SDS011;8029;52.202;7.308;2023-06-14T02:02:41;0.77;;;0.77;;
15858;SDS011;8029;52.202;7.308;2023-06-14T02:05:07;0.88;;;0.88;;
15858;SDS011;8029;52.202;7.308;2023-06-14T02:07:34;0.73;;;0.73;;
15858;SDS011;8029;52.202;7.308;2023-06-14T02:10:00;7.22;;;1.58;;
15858;SDS011;8029;52.202;7.308;2023-06-14T02:12:26;1.15;;;1.05;;
15858;SDS011;8029;52.202;7.308;2023-06-14T02:14:52;2.40;;;0.95;;
15858;SDS011;8029;52.202;7.308;2023-06-14T02:17:17;2.47;;;1.23;;
15858;SDS011;8029;52.202;7.308;2023-06-14T02:19:43;1.13;;;1.13;;
15858;SDS011;8029;52.202;7.308;2023-06-14T02:22:09;1.33;;;0.98;;
15858;SDS011;8029;52.202;7.308;2023-06-14T02:24:35;1.67;;;1.00;;
15858;SDS011;8029;52.202;7.308;2023-06-14T02:27:02;0.70;;;0.70;;
15858;SDS011;8029;52.202;7.308;2023-06-14T02:29:28;1.00;;;0.93;;
15858;SDS011;8029;52.202;7.308;2023-06-14T02:31:54;0.95;;;0.95;;
15858;SDS011;8029;52.202;7.308;2023-06-14T02:34:20;1.17;;;0.80;;
15858;SDS011;8029;52.202;7.308;2023-06-14T02:36:47;1.05;;;0.93;;
15858;SDS011;8029;52.202;7.308;2023-06-14T02:39:13;0.95;;;0.95;;
15858;SDS011;8029;52.202;7.308;2023-06-14T02:41:39;1.33;;;1.00;;
15858;SDS011;8029;52.202;7.308;2023-06-14T02:44:06;1.13;;;0.93;;
15858;SDS011;8029;52.202;7.308;2023-06-14T02:46:32;1.13;;;0.90;;
15858;SDS011;8029;52.202;7.308;2023-06-14T02:49:01;2.28;;;1.27;;
15858;SDS011;8029;52.202;7.308;2023-06-14T02:51:27;2.33;;;1.55;;
15858;SDS011;8029;52.202;7.308;2023-06-14T02:53:53;0.93;;;0.93;;
15858;SDS011;8029;52.202;7.308;2023-06-14T02:56:19;1.02;;;0.85;;
15858;SDS011;8029;52.202;7.308;2023-06-14T02:58:47;0.85;;;0.85;;
15858;SDS011;8029;52.202;7.308;2023-06-14T03:01:13;1.05;;;0.93;;
15858;SDS011;8029;52.202;7.308;2023-06-14T03:03:39;1.10;;;1.00;;
15858;SDS011;8029;52.202;7.308;2023-06-14T03:06:05;1.02;;;0.80;;
15858;SDS011;8029;52.202;7.308;2023-06-14T03:08:33;0.70;;;0.70;;
15858;SDS011;8029;52.202;7.308;2023-06-14T03:11:03;1.88;;;1.23;;
15858;SDS011;8029;52.202;7.308;2023-06-14T03:13:36;0.75;;;0.75;;
15858;SDS011;8029;52.202;7.308;2023-06-14T03:16:03;1.38;;;1.27;;
15858;SDS011;8029;52.202;7.308;2023-06-14T03:18:30;0.57;;;0.57;;
15858;SDS011;8029;52.202;7.308;2023-06-14T03:21:00;3.63;;;1.88;;
15858;SDS011;8029;52.202;7.308;2023-06-14T03:23:26;0.85;;;0.82;;
15858;SDS011;8029;52.202;7.308;2023-06-14T03:25:52;2.88;;;1.58;;
15858;SDS011;8029;52.202;7.308;2023-06-14T03:28:18;0.90;;;0.90;;
15858;SDS011;8029;52.202;7.308;2023-06-14T03:30:44;1.08;;;1.05;;
15858;SDS011;8029;52.202;7.308;2023-06-14T03:33:10;3.22;;;1.73;;
15858;SDS011;8029;52.202;7.308;2023-06-14T03:35:36;1.58;;;1.30;;
15858;SDS011;8029;52.202;7.308;2023-06-14T03:38:02;0.73;;;0.70;;
15858;SDS011;8029;52.202;7.308;2023-06-14T03:40:28;1.52;;;1.13;;
15858;SDS011;8029;52.202;7.308;2023-06-14T03:42:54;2.83;;;1.27;;
15858;SDS011;8029;52.202;7.308;2023-06-14T03:45:21;0.80;;;0.80;;
15858;SDS011;8029;52.202;7.308;2023-06-14T03:47:47;2.17;;;1.33;;
15858;SDS011;8029;52.202;7.308;2023-06-14T03:50:13;2.13;;;1.65;;
15858;SDS011;8029;52.202;7.308;2023-06-14T03:52:40;0.75;;;0.75;;
15858;SDS011;8029;52.202;7.308;2023-06-14T03:55:08;2.70;;;1.50;;
15858;SDS011;8029;52.202;7.308;2023-06-14T03:57:34;1.60;;;1.05;;
15858;SDS011;8029;52.202;7.308;2023-06-14T04:00:00;16.90;;;1.80;;
15858;SDS011;8029;52.202;7.308;2023-06-14T04:02:26;1.02;;;1.02;;
15858;SDS011;8029;52.202;7.308;2023-06-14T04:04:54;1.30;;;1.20;;
15858;SDS011;8029;52.202;7.308;2023-06-14T04:07:20;1.15;;;0.95;;
15858;SDS011;8029;52.202;7.308;2023-06-14T04:09:46;1.42;;;1.30;;
15858;SDS011;8029;52.202;7.308;2023-06-14T04:12:13;1.73;;;1.63;;
15858;SDS011;8029;52.202;7.308;2023-06-14T04:14:39;1.20;;;0.85;;
15858;SDS011;8029;52.202;7.308;2023-06-14T04:17:06;1.25;;;1.20;;
15858;SDS011;8029;52.202;7.308;2023-06-14T04:19:32;1.30;;;1.20;;
15858;SDS011;8029;52.202;7.308;2023-06-14T04:21:58;1.85;;;1.65;;
15858;SDS011;8029;52.202;7.308;2023-06-14T04:24:26;1.17;;;1.05;;
15858;SDS011;8029;52.202;7.308;2023-06-14T04:26:56;2.53;;;0.90;;
15858;SDS011;8029;52.202;7.308;2023-06-14T04:29:23;1.63;;;1.52;;
15858;SDS011;8029;52.202;7.308;2023-06-14T04:31:51;1.05;;;1.00;;
15858;SDS011;8029;52.202;7.308;2023-06-14T04:34:18;0.70;;;0.70;;
15858;SDS011;8029;52.202;7.308;2023-06-14T04:36:44;0.93;;;0.88;;
15858;SDS011;8029;52.202;7.308;2023-06-14T04:39:14;3.35;;;1.15;;
15858;SDS011;8029;52.202;7.308;2023-06-14T04:41:40;1.35;;;1.10;;
15858;SDS011;8029;52.202;7.308;2023-06-14T04:44:06;2.50;;;1.10;;
15858;SDS011;8029;52.202;7.308;2023-06-14T04:46:32;1.58;;;1.48;;
15858;SDS011;8029;52.202;7.308;2023-06-14T04:49:11;1.65;;;1.52;;
15858;SDS011;8029;52.202;7.308;2023-06-14T04:51:40;1.90;;;1.15;;
15858;SDS011;8029;52.202;7.308;2023-06-14T04:54:07;1.05;;;1.00;;
15858;SDS011;8029;52.202;7.308;2023-06-14T04:56:35;0.85;;;0.80;;
15858;SDS011;8029;52.202;7.308;2023-06-14T04:59:02;1.67;;;1.33;;
15858;SDS011;8029;52.202;7.308;2023-06-14T05:01:32;0.90;;;0.90;;
15858;SDS011;8029;52.202;7.308;2023-06-14T05:03:58;2.15;;;1.40;;
15858;SDS011;8029;52.202;7.308;2023-06-14T05:06:24;1.20;;;1.10;;
15858;SDS011;8029;52.202;7.308;2023-06-14T05:08:53;6.43;;;2.28;;
15858;SDS011;8029;52.202;7.308;2023-06-14T05:11:19;2.38;;;2.25;;
15858;SDS011;8029;52.202;7.308;2023-06-14T05:13:49;2.88;;;2.33;;
15858;SDS011;8029;52.202;7.308;2023-06-14T05:16:15;2.42;;;2.22;;
15858;SDS011;8029;52.202;7.308;2023-06-14T05:18:44;5.25;;;1.85;;
15858;SDS011;8029;52.202;7.308;2023-06-14T05:21:11;1.40;;;1.38;;
15858;SDS011;8029;52.202;7.308;2023-06-14T05:23:36;1.63;;;1.52;;
15858;SDS011;8029;52.202;7.308;2023-06-14T05:26:02;3.28;;;2.17;;
15858;SDS011;8029;52.202;7.308;2023-06-14T05:28:29;2.22;;;2.13;;
15858;SDS011;8029;52.202;7.308;2023-06-14T05:30:56;1.65;;;1.55;;
15858;SDS011;8029;52.202;7.308;2023-06-14T05:33:23;1.70;;;1.58;;
15858;SDS011;8029;52.202;7.308;2023-06-14T05:35:49;1.67;;;1.58;;
15858;SDS011;8029;52.202;7.308;2023-06-14T05:38:15;6.93;;;2.10;;
15858;SDS011;8029;52.202;7.308;2023-06-14T05:40:43;6.80;;;1.70;;
15858;SDS011;8029;52.202;7.308;2023-06-14T05:43:10;0.95;;;0.95;;
15858;SDS011;8029;52.202;7.308;2023-06-14T05:45:35;1.23;;;1.02;;
15858;SDS011;8029;52.202;7.308;2023-06-14T05:48:01;1.25;;;1.15;;
15858;SDS011;8029;52.202;7.308;2023-06-14T05:50:27;0.80;;;0.80;;
15858;SDS011;8029;52.202;7.308;2023-06-14T05:52:53;0.95;;;0.93;;
15858;SDS011;8029;52.202;7.308;2023-06-14T05:55:19;2.47;;;0.98;;
15858;SDS011;8029;52.202;7.308;2023-06-14T05:57:45;6.72;;;0.80;;
15858;SDS011;8029;52.202;7.308;2023-06-14T06:00:13;0.63;;;0.63;;
15858;SDS011;8029;52.202;7.308;2023-06-14T06:02:44;0.38;;;0.38;;
15858;SDS011;8029;52.202;7.308;2023-06-14T06:05:11;0.40;;;0.40;;
15858;SDS011;8029;52.202;7.308;2023-06-14T06:07:38;1.10;;;0.80;;
15858;SDS011;8029;52.202;7.308;2023-06-14T06:10:09;0.50;;;0.50;;
15858;SDS011;8029;52.202;7.308;2023-06-14T06:12:35;0.82;;;0.82;;
15858;SDS011;8029;52.202;7.308;2023-06-14T06:15:01;0.80;;;0.80;;
15858;SDS011;8029;52.202;7.308;2023-06-14T06:17:28;0.80;;;0.73;;
15858;SDS011;8029;52.202;7.308;2023-06-14T06:19:54;0.60;;;0.60;;
15858;SDS011;8029;52.202;7.308;2023-06-14T06:22:20;0.73;;;0.73;;
15858;SDS011;8029;52.202;7.308;2023-06-14T06:24:46;15.85;;;1.30;;
15858;SDS011;8029;52.202;7.308;2023-06-14T06:27:12;0.47;;;0.47;;
15858;SDS011;8029;52.202;7.308;2023-06-14T06:29:38;0.40;;;0.40;;
15858;SDS011;8029;52.202;7.308;2023-06-14T06:32:04;0.63;;;0.63;;
15858;SDS011;8029;52.202;7.308;2023-06-14T06:34:31;0.52;;;0.52;;
15858;SDS011;8029;52.202;7.308;2023-06-14T06:36:56;0.93;;;0.85;;
15858;SDS011;8029;52.202;7.308;2023-06-14T06:39:22;0.75;;;0.60;;
15858;SDS011;8029;52.202;7.308;2023-06-14T06:41:48;0.50;;;0.50;;
15858;SDS011;8029;52.202;7.308;2023-06-14T06:44:14;1.65;;;0.95;;
15858;SDS011;8029;52.202;7.308;2023-06-14T06:46:40;1.25;;;0.75;;
15858;SDS011;8029;52.202;7.308;2023-06-14T06:49:08;1.38;;;1.27;;
15858;SDS011;8029;52.202;7.308;2023-06-14T06:51:34;0.90;;;0.90;;
15858;SDS011;8029;52.202;7.308;2023-06-14T06:54:02;0.32;;;0.32;;
15858;SDS011;8029;52.202;7.308;2023-06-14T06:56:28;0.98;;;0.90;;
15858;SDS011;8029;52.202;7.308;2023-06-14T06:58:54;0.68;;;0.68;;
15858;SDS011;8029;52.202;7.308;2023-06-14T07:01:20;0.52;;;0.45;;
15858;SDS011;8029;52.202;7.308;2023-06-14T07:03:46;0.90;;;0.90;;
15858;SDS011;8029;52.202;7.308;2023-06-14T07:06:12;0.45;;;0.45;;
15858;SDS011;8029;52.202;7.308;2023-06-14T07:08:38;1.08;;;0.68;;
15858;SDS011;8029;52.202;7.308;2023-06-14T07:11:04;0.60;;;0.60;;
15858;SDS011;8029;52.202;7.308;2023-06-14T07:13:30;0.40;;;0.40;;
15858;SDS011;8029;52.202;7.308;2023-06-14T07:15:59;0.57;;;0.57;;
15858;SDS011;8029;52.202;7.308;2023-06-14T07:18:26;0.52;;;0.52;;
15858;SDS011;8029;52.202;7.308;2023-06-14T07:20:52;0.77;;;0.77;;
15858;SDS011;8029;52.202;7.308;2023-06-14T07:23:19;1.50;;;1.13;;
15858;SDS011;8029;52.202;7.308;2023-06-14T07:25:45;0.45;;;0.45;;
15858;SDS011;8029;52.202;7.308;2023-06-14T07:28:11;2.28;;;0.45;;
15858;SDS011;8029;52.202;7.308;2023-06-14T07:30:37;0.85;;;0.73;;
15858;SDS011;8029;52.202;7.308;2023-06-14T07:33:03;0.60;;;0.60;;
15858;SDS011;8029;52.202;7.308;2023-06-14T07:35:28;0.43;;;0.43;;
15858;SDS011;8029;52.202;7.308;2023-06-14T07:37:54;1.00;;;0.77;;
15858;SDS011;8029;52.202;7.308;2023-06-14T07:40:20;0.73;;;0.60;;
15858;SDS011;8029;52.202;7.308;2023-06-14T07:42:46;0.45;;;0.45;;
15858;SDS011;8029;52.202;7.308;2023-06-14T07:45:14;0.55;;;0.55;;
15858;SDS011;8029;52.202;7.308;2023-06-14T07:47:40;0.40;;;0.40;;
15858;SDS011;8029;52.202;7.308;2023-06-14T07:50:06;0.63;;;0.63;;
15858;SDS011;8029;52.202;7.308;2023-06-14T07:52:32;0.77;;;0.77;;
15858;SDS011;8029;52.202;7.308;2023-06-14T07:54:58;0.68;;;0.68;;
15858;SDS011;8029;52.202;7.308;2023-06-14T07:57:25;0.43;;;0.43;;
15858;SDS011;8029;52.202;7.308;2023-06-14T07:59:51;0.90;;;0.70;;
15858;SDS011;8029;52.202;7.308;2023-06-14T08:02:17;0.45;;;0.43;;
15858;SDS011;8029;52.202;7.308;2023-06-14T08:04:44;0.70;;;0.60;;
15858;SDS011;8029;52.202;7.308;2023-06-14T08:07:10;0.47;;;0.47;;
15858;SDS011;8029;52.202;7.308;2023-06-14T08:09:37;1.02;;;0.93;;
15858;SDS011;8029;52.202;7.308;2023-06-14T08:12:03;1.45;;;0.70;;
15858;SDS011;8029;52.202;7.308;2023-06-14T08:14:32;1.13;;;1.08;;
15858;SDS011;8029;52.202;7.308;2023-06-14T08:16:58;0.40;;;0.40;;
15858;SDS011;8029;52.202;7.308;2023-06-14T08:19:24;0.43;;;0.43;;
15858;SDS011;8029;52.202;7.308;2023-06-14T08:21:50;0.90;;;0.90;;
15858;SDS011;8029;52.202;7.308;2023-06-14T08:24:16;0.82;;;0.82;;
15858;SDS011;8029;52.202;7.308;2023-06-14T08:26:43;0.82;;;0.80;;
15858;SDS011;8029;52.202;7.308;2023-06-14T08:29:10;0.80;;;0.80;;
15858;SDS011;8029;52.202;7.308;2023-06-14T08:31:36;0.60;;;0.60;;
15858;SDS011;8029;52.202;7.308;2023-06-14T08:34:02;1.10;;;1.00;;
15858;SDS011;8029;52.202;7.308;2023-06-14T08:36:28;0.85;;;0.82;;
15858;SDS011;8029;52.202;7.308;2023-06-14T08:38:54;0.68;;;0.68;;
15858;SDS011;8029;52.202;7.308;2023-06-14T08:41:21;0.85;;;0.85;;
15858;SDS011;8029;52.202;7.308;2023-06-14T08:43:50;1.17;;;1.05;;
15858;SDS011;8029;52.202;7.308;2023-06-14T08:46:17;0.88;;;0.88;;
15858;SDS011;8029;52.202;7.308;2023-06-14T08:48:50;1.10;;;1.02;;
15858;SDS011;8029;52.202;7.308;2023-06-14T08:51:20;0.85;;;0.80;;
15858;SDS011;8029;52.202;7.308;2023-06-14T08:53:49;0.93;;;0.90;;
15858;SDS011;8029;52.202;7.308;2023-06-14T08:56:17;0.90;;;0.75;;
15858;SDS011;8029;52.202;7.308;2023-06-14T08:58:45;0.65;;;0.52;;
15858;SDS011;8029;52.202;7.308;2023-06-14T09:01:13;0.50;;;0.50;;
15858;SDS011;8029;52.202;7.308;2023-06-14T09:03:41;0.52;;;0.52;;
15858;SDS011;8029;52.202;7.308;2023-06-14T09:06:08;0.63;;;0.63;;
15858;SDS011;8029;52.202;7.308;2023-06-14T09:08:38;2.90;;;0.98;;
15858;SDS011;8029;52.202;7.308;2023-06-14T09:11:05;0.50;;;0.50;;
15858;SDS011;8029;52.202;7.308;2023-06-14T09:13:31;0.82;;;0.70;;
15858;SDS011;8029;52.202;7.308;2023-06-14T09:15:57;0.45;;;0.43;;
15858;SDS011;8029;52.202;7.308;2023-06-14T09:18:32;1.75;;;1.17;;
15858;SDS011;8029;52.202;7.308;2023-06-14T09:20:59;0.32;;;0.32;;
15858;SDS011;8029;52.202;7.308;2023-06-14T09:23:25;0.80;;;0.65;;
15858;SDS011;8029;52.202;7.308;2023-06-14T09:25:51;0.50;;;0.50;;
15858;SDS011;8029;52.202;7.308;2023-06-14T09:28:17;1.10;;;0.50;;
15858;SDS011;8029;52.202;7.308;2023-06-14T09:30:44;0.40;;;0.40;;
15858;SDS011;8029;52.202;7.308;2023-06-14T09:33:10;2.80;;;0.90;;
15858;SDS011;8029;52.202;7.308;2023-06-14T09:35:36;1.08;;;0.95;;
15858;SDS011;8029;52.202;7.308;2023-06-14T09:38:02;0.40;;;0.40;;
15858;SDS011;8029;52.202;7.308;2023-06-14T09:40:28;0.47;;;0.47;;
15858;SDS011;8029;52.202;7.308;2023-06-14T09:42:59;0.40;;;0.40;;
15858;SDS011;8029;52.202;7.308;2023-06-14T09:45:25;0.40;;;0.40;;
15858;SDS011;8029;52.202;7.308;2023-06-14T09:47:54;1.58;;;0.75;;
15858;SDS011;8029;52.202;7.308;2023-06-14T09:50:20;0.68;;;0.68;;
15858;SDS011;8029;52.202;7.308;2023-06-14T09:52:46;0.68;;;0.43;;
15858;SDS011;8029;52.202;7.308;2023-06-14T09:55:16;0.50;;;0.50;;
15858;SDS011;8029;52.202;7.308;2023-06-14T09:57:42;0.30;;;0.30;;
15858;SDS011;8029;52.202;7.308;2023-06-14T10:00:12;0.40;;;0.40;;
15858;SDS011;8029;52.202;7.308;2023-06-14T10:02:39;0.50;;;0.43;;
15858;SDS011;8029;52.202;7.308;2023-06-14T10:05:08;0.43;;;0.43;;
15858;SDS011;8029;52.202;7.308;2023-06-14T10:10:06;1.05;;;0.93;;
15858;SDS011;8029;52.202;7.308;2023-06-14T10:12:33;3.17;;;0.93;;
15858;SDS011;8029;52.202;7.308;2023-06-14T10:14:59;28.83;;;1.17;;
15858;SDS011;8029;52.202;7.308;2023-06-14T10:17:29;0.63;;;0.60;;
15858;SDS011;8029;52.202;7.308;2023-06-14T10:20:03;0.70;;;0.70;;
15858;SDS011;8029;52.202;7.308;2023-06-14T10:22:34;0.40;;;0.40;;
15858;SDS011;8029;52.202;7.308;2023-06-14T10:25:01;0.68;;;0.68;;
15858;SDS011;8029;52.202;7.308;2023-06-14T10:27:27;0.43;;;0.43;;
15858;SDS011;8029;52.202;7.308;2023-06-14T10:32:22;0.40;;;0.40;;
15858;SDS011;8029;52.202;7.308;2023-06-14T10:35:15;0.80;;;0.80;;
15858;SDS011;8029;52.202;7.308;2023-06-14T10:37:35;0.75;;;0.75;;
15858;SDS011;8029;52.202;7.308;2023-06-14T10:40:01;0.47;;;0.45;;
15858;SDS011;8029;52.202;7.308;2023-06-14T10:42:27;0.63;;;0.63;;
15858;SDS011;8029;52.202;7.308;2023-06-14T10:44:54;0.40;;;0.40;;
15858;SDS011;8029;52.202;7.308;2023-06-14T10:47:30;0.68;;;0.68;;
15858;SDS011;8029;52.202;7.308;2023-06-14T10:50:06;0.60;;;0.60;;
15858;SDS011;8029;52.202;7.308;2023-06-14T10:52:42;1.23;;;0.98;;
15858;SDS011;8029;52.202;7.308;2023-06-14T10:57:36;0.30;;;0.30;;
15858;SDS011;8029;52.202;7.308;2023-06-14T11:00:04;0.40;;;0.40;;
15858;SDS011;8029;52.202;7.308;2023-06-14T11:05:11;0.55;;;0.55;;
15858;SDS011;8029;52.202;7.308;2023-06-14T11:07:47;0.73;;;0.73;;
15858;SDS011;8029;52.202;7.308;2023-06-14T11:12:55;0.20;;;0.20;;
15858;SDS011;8029;52.202;7.308;2023-06-14T11:15:27;0.68;;;0.63;;
15858;SDS011;8029;52.202;7.308;2023-06-14T11:17:53;0.55;;;0.55;;
15858;SDS011;8029;52.202;7.308;2023-06-14T11:20:24;0.95;;;0.82;;
15858;SDS011;8029;52.202;7.308;2023-06-14T11:22:51;6.88;;;1.30;;
15858;SDS011;8029;52.202;7.308;2023-06-14T11:25:17;0.68;;;0.68;;
15858;SDS011;8029;52.202;7.308;2023-06-14T11:27:44;0.50;;;0.50;;
15858;SDS011;8029;52.202;7.308;2023-06-14T11:30:10;0.70;;;0.70;;
15858;SDS011;8029;52.202;7.308;2023-06-14T11:32:37;2.65;;;1.02;;
15858;SDS011;8029;52.202;7.308;2023-06-14T11:35:03;2.88;;;0.57;;
15858;SDS011;8029;52.202;7.308;2023-06-14T11:37:30;1.10;;;1.00;;
15858;SDS011;8029;52.202;7.308;2023-06-14T11:39:58;1.27;;;0.80;;
15858;SDS011;8029;52.202;7.308;2023-06-14T11:42:26;0.32;;;0.32;;
15858;SDS011;8029;52.202;7.308;2023-06-14T11:44:53;0.50;;;0.50;;
15858;SDS011;8029;52.202;7.308;2023-06-14T11:47:19;0.50;;;0.50;;
15858;SDS011;8029;52.202;7.308;2023-06-14T11:49:45;0.85;;;0.68;;
15858;SDS011;8029;52.202;7.308;2023-06-14T11:52:12;9.20;;;1.40;;
15858;SDS011;8029;52.202;7.308;2023-06-14T11:54:38;1.05;;;0.98;;
15858;SDS011;8029;52.202;7.308;2023-06-14T11:57:09;0.70;;;0.70;;
15858;SDS011;8029;52.202;7.308;2023-06-14T12:02:07;1.52;;;0.77;;
15858;SDS011;8029;52.202;7.308;2023-06-14T12:04:33;0.52;;;0.52;;
15858;SDS011;8029;52.202;7.308;2023-06-14T12:07:09;0.70;;;0.70;;
15858;SDS011;8029;52.202;7.308;2023-06-14T12:09:39;0.50;;;0.50;;
15858;SDS011;8029;52.202;7.308;2023-06-14T12:12:06;0.55;;;0.45;;
15858;SDS011;8029;52.202;7.308;2023-06-14T12:14:32;0.35;;;0.35;;
15858;SDS011;8029;52.202;7.308;2023-06-14T12:17:05;2.90;;;1.05;;
15858;SDS011;8029;52.202;7.308;2023-06-14T12:19:41;0.30;;;0.30;;
15858;SDS011;8029;52.202;7.308;2023-06-14T12:22:09;0.60;;;0.60;;
15858;SDS011;8029;52.202;7.308;2023-06-14T12:24:35;0.50;;;0.50;;
15858;SDS011;8029;52.202;7.308;2023-06-14T12:27:01;0.45;;;0.35;;
15858;SDS011;8029;52.202;7.308;2023-06-14T12:29:30;3.30;;;1.00;;
15858;SDS011;8029;52.202;7.308;2023-06-14T12:31:56;1.17;;;0.73;;
15858;SDS011;8029;52.202;7.308;2023-06-14T12:34:23;0.38;;;0.38;;
15858;SDS011;8029;52.202;7.308;2023-06-14T12:36:55;1.08;;;0.55;;
15858;SDS011;8029;52.202;7.308;2023-06-14T12:39:22;0.50;;;0.45;;
15858;SDS011;8029;52.202;7.308;2023-06-14T12:41:48;1.67;;;0.95;;
15858;SDS011;8029;52.202;7.308;2023-06-14T12:44:14;0.38;;;0.35;;
15858;SDS011;8029;52.202;7.308;2023-06-14T12:46:43;0.65;;;0.65;;
15858;SDS011;8029;52.202;7.308;2023-06-14T12:49:12;0.35;;;0.35;;
15858;SDS011;8029;52.202;7.308;2023-06-14T12:51:38;0.82;;;0.50;;
15858;SDS011;8029;52.202;7.308;2023-06-14T12:54:05;0.35;;;0.35;;
15858;SDS011;8029;52.202;7.308;2023-06-14T12:56:31;0.17;;;0.17;;
15858;SDS011;8029;52.202;7.308;2023-06-14T12:58:58;1.33;;;0.90;;
15858;SDS011;8029;52.202;7.308;2023-06-14T13:01:24;0.20;;;0.20;;
15858;SDS011;8029;52.202;7.308;2023-06-14T13:03:50;0.30;;;0.30;;
15858;SDS011;8029;52.202;7.308;2023-06-14T13:06:20;0.55;;;0.55;;
15858;SDS011;8029;52.202;7.308;2023-06-14T13:08:46;0.30;;;0.30;;
15858;SDS011;8029;52.202;7.308;2023-06-14T13:11:12;0.20;;;0.20;;
15858;SDS011;8029;52.202;7.308;2023-06-14T13:13:37;0.30;;;0.30;;
15858;SDS011;8029;52.202;7.308;2023-06-14T13:16:03;3.30;;;0.20;;
15858;SDS011;8029;52.202;7.308;2023-06-14T13:18:30;0.20;;;0.20;;
15858;SDS011;8029;52.202;7.308;2023-06-14T13:20:55;0.20;;;0.20;;
15858;SDS011;8029;52.202;7.308;2023-06-14T13:23:21;1.58;;;0.77;;
15858;SDS011;8029;52.202;7.308;2023-06-14T13:25:47;1.65;;;0.30;;
15858;SDS011;8029;52.202;7.308;2023-06-14T13:28:16;0.30;;;0.30;;
15858;SDS011;8029;52.202;7.308;2023-06-14T13:30:42;0.85;;;0.32;;
15858;SDS011;8029;52.202;7.308;2023-06-14T13:33:08;0.43;;;0.43;;
15858;SDS011;8029;52.202;7.308;2023-06-14T13:35:34;0.20;;;0.20;;
15858;SDS011;8029;52.202;7.308;2023-06-14T13:38:00;0.55;;;0.55;;
15858;SDS011;8029;52.202;7.308;2023-06-14T13:40:26;0.30;;;0.30;;
15858;SDS011;8029;52.202;7.308;2023-06-14T13:42:52;0.22;;;0.22;;
15858;SDS011;8029;52.202;7.308;2023-06-14T13:45:18;0.60;;;0.60;;
15858;SDS011;8029;52.202;7.308;2023-06-14T13:47:44;0.55;;;0.55;;
15858;SDS011;8029;52.202;7.308;2023-06-14T13:50:13;0.63;;;0.55;;
15858;SDS011;8029;52.202;7.308;2023-06-14T13:52:40;0.20;;;0.20;;
15858;SDS011;8029;52.202;7.308;2023-06-14T13:55:06;0.43;;;0.40;;
15858;SDS011;8029;52.202;7.308;2023-06-14T13:57:32;0.63;;;0.55;;
15858;SDS011;8029;52.202;7.308;2023-06-14T13:59:58;0.32;;;0.32;;
15858;SDS011;8029;52.202;7.308;2023-06-14T14:02:26;0.30;;;0.30;;
15858;SDS011;8029;52.202;7.308;2023-06-14T14:04:54;0.52;;;0.38;;
15858;SDS011;8029;52.202;7.308;2023-06-14T14:07:20;0.30;;;0.30;;
15858;SDS011;8029;52.202;7.308;2023-06-14T14:09:47;0.25;;;0.25;;
15858;SDS011;8029;52.202;7.308;2023-06-14T14:12:13;0.82;;;0.28;;
15858;SDS011;8029;52.202;7.308;2023-06-14T14:14:41;0.50;;;0.30;;
15858;SDS011;8029;52.202;7.308;2023-06-14T14:17:07;0.70;;;0.70;;
15858;SDS011;8029;52.202;7.308;2023-06-14T14:19:34;0.30;;;0.30;;
15858;SDS011;8029;52.202;7.308;2023-06-14T14:22:01;0.73;;;0.50;;
15858;SDS011;8029;52.202;7.308;2023-06-14T14:24:27;0.38;;;0.22;;
15858;SDS011;8029;52.202;7.308;2023-06-14T14:26:53;0.88;;;0.47;;
15858;SDS011;8029;52.202;7.308;2023-06-14T14:29:20;0.30;;;0.30;;
15858;SDS011;8029;52.202;7.308;2023-06-14T14:31:47;0.30;;;0.30;;
15858;SDS011;8029;52.202;7.308;2023-06-14T14:34:13;0.45;;;0.20;;
15858;SDS011;8029;52.202;7.308;2023-06-14T14:36:39;0.30;;;0.30;;
15858;SDS011;8029;52.202;7.308;2023-06-14T14:39:07;0.80;;;0.40;;
15858;SDS011;8029;52.202;7.308;2023-06-14T14:41:33;0.45;;;0.22;;
15858;SDS011;8029;52.202;7.308;2023-06-14T14:43:59;0.28;;;0.28;;
15858;SDS011;8029;52.202;7.308;2023-06-14T14:46:25;0.57;;;0.55;;
15858;SDS011;8029;52.202;7.308;2023-06-14T14:48:51;0.38;;;0.38;;
15858;SDS011;8029;52.202;7.308;2023-06-14T14:51:17;0.15;;;0.15;;
15858;SDS011;8029;52.202;7.308;2023-06-14T14:53:43;0.60;;;0.60;;
15858;SDS011;8029;52.202;7.308;2023-06-14T14:56:10;0.57;;;0.25;;
15858;SDS011;8029;52.202;7.308;2023-06-14T14:58:37;0.20;;;0.20;;
15858;SDS011;8029;52.202;7.308;2023-06-14T15:01:03;0.10;;;0.10;;
15858;SDS011;8029;52.202;7.308;2023-06-14T15:03:30;0.30;;;0.30;;
15858;SDS011;8029;52.202;7.308;2023-06-14T15:05:56;0.20;;;0.20;;
15858;SDS011;8029;52.202;7.308;2023-06-14T15:08:22;0.30;;;0.30;;
15858;SDS011;8029;52.202;7.308;2023-06-14T15:10:48;1.10;;;0.47;;
15858;SDS011;8029;52.202;7.308;2023-06-14T15:13:14;0.30;;;0.30;;
15858;SDS011;8029;52.202;7.308;2023-06-14T15:15:40;3.90;;;0.68;;